Time;durP1;ratioP1;P1;durP2;ratioP2;P2;SDS_P1;SDS_P2;PMS_P1;PMS_P2;Temp;Humidity;BMP_temperature;BMP_pressure;BME280_temperature;BME280_humidity;BME280_pressure;Samples;Min_cycle;Max_cycle;Signal;HPM_P1;HPM_P2
2022/03/01 00:01:19;;;;;;;37.45;21.33;;;7.70;99.90;;;;;;5054736;28;20021;-77
2022/03/01 00:03:45;;;;;;;34.88;20.95;;;7.70;99.90;;;;;;5052214;28;20033;-77
2022/03/01 00:06:11;;;;;;;40.33;21.35;;;7.60;99.90;;;;;;5073344;28;20382;-78
2022/03/01 00:08:37;;;;;;;39.08;21.98;;;7.70;99.90;;;;;;5074002;28;20098;-78
2022/03/01 00:11:03;;;;;;;40.15;22.52;;;7.70;99.90;;;;;;5036283;28;20471;-78
2022/03/01 00:13:29;;;;;;;39.78;21.40;;;7.60;99.90;;;;;;5054193;28;20467;-79
2022/03/01 00:15:55;;;;;;;39.20;20.70;;;7.80;99.90;;;;;;5036695;28;20517;-79
2022/03/01 00:18:21;;;;;;;39.60;21.25;;;7.80;99.90;;;;;;5054503;28;20096;-79
2022/03/01 00:20:47;;;;;;;37.88;22.38;;;7.90;99.90;;;;;;5036671;28;20035;-78
2022/03/01 00:23:13;;;;;;;37.70;21.10;;;7.90;99.90;;;;;;5054522;28;20101;-78
2022/03/01 00:25:39;;;;;;;43.17;22.30;;;7.80;99.90;;;;;;5036456;28;20111;-79
2022/03/01 00:28:05;;;;;;;35.42;21.45;;;7.90;99.90;;;;;;5036230;28;20047;-80
2022/03/01 00:30:31;;;;;;;44.72;22.48;;;8.00;99.90;;;;;;5054226;28;20033;-78
2022/03/01 00:32:57;;;;;;;38.40;22.55;;;7.90;99.90;;;;;;5053504;28;20494;-78
2022/03/01 00:35:23;;;;;;;40.45;24.05;;;7.90;99.90;;;;;;5036551;28;20025;-78
2022/03/01 00:37:49;;;;;;;43.10;24.02;;;7.80;99.90;;;;;;5036013;28;20037;-77
2022/03/01 00:40:15;;;;;;;39.72;23.17;;;8.00;99.90;;;;;;5054238;28;20021;-78
2022/03/01 00:42:41;;;;;;;45.25;24.75;;;7.90;99.90;;;;;;5055763;28;20053;-78
2022/03/01 00:45:08;;;;;;;44.53;25.40;;;8.00;99.90;;;;;;5066900;28;20126;-78
2022/03/01 00:47:34;;;;;;;43.92;25.10;;;8.00;99.90;;;;;;5053895;28;20467;-78
2022/03/01 00:50:00;;;;;;;41.42;25.08;;;8.10;99.90;;;;;;5052604;28;20025;-79
2022/03/01 00:52:26;;;;;;;44.38;26.40;;;7.90;99.90;;;;;;5016237;28;20030;-78
2022/03/01 00:54:52;;;;;;;44.00;26.27;;;8.00;99.90;;;;;;5045321;28;20102;-79
2022/03/01 00:57:18;;;;;;;44.83;26.02;;;7.90;99.90;;;;;;5047885;28;20483;-79
2022/03/01 00:59:44;;;;;;;44.50;24.90;;;8.00;99.90;;;;;;5052495;28;20033;-79
2022/03/01 01:02:10;;;;;;;55.63;27.27;;;8.20;99.90;;;;;;5041772;28;20029;-79
2022/03/01 01:04:36;;;;;;;58.05;30.48;;;8.30;99.90;;;;;;5054720;28;20047;-79
2022/03/01 01:07:03;;;;;;;59.78;31.70;;;8.40;99.90;;;;;;5052582;28;20452;-79
2022/03/01 01:09:29;;;;;;;59.67;32.00;;;8.40;99.90;;;;;;5060839;28;20024;-78
2022/03/01 01:11:58;;;;;;;57.00;30.88;;;8.40;99.90;;;;;;5058957;28;20029;-80
2022/03/01 01:14:24;;;;;;;51.47;29.73;;;8.30;99.90;;;;;;5048798;28;20538;-80
2022/03/01 01:16:51;;;;;;;56.42;31.20;;;8.30;99.90;;;;;;5054863;28;20029;-79
2022/03/01 01:19:17;;;;;;;52.72;30.27;;;8.30;99.90;;;;;;5075654;28;20021;-77
2022/03/01 01:24:27;;;;;;;54.88;29.88;;;8.20;99.90;;;;;;5067852;28;20051;-80
2022/03/01 01:26:54;;;;;;;64.18;31.35;;;8.20;99.90;;;;;;5052158;28;20490;-79
2022/03/01 01:29:20;;;;;;;65.13;31.10;;;8.10;99.90;;;;;;5061480;28;20037;-79
2022/03/01 01:31:46;;;;;;;58.67;30.15;;;8.10;99.90;;;;;;5053083;28;20459;-79
2022/03/01 01:34:12;;;;;;;67.95;29.92;;;8.10;99.90;;;;;;5051712;28;20033;-79
2022/03/01 01:36:38;;;;;;;62.60;31.20;;;8.10;99.90;;;;;;5055020;28;20021;-80
2022/03/01 01:39:04;;;;;;;85.43;39.97;;;8.30;99.90;;;;;;5073031;28;20044;-81
2022/03/01 01:41:30;;;;;;;82.63;44.05;;;8.30;99.90;;;;;;5052758;28;20039;-79
2022/03/01 01:43:57;;;;;;;87.28;43.58;;;8.20;99.90;;;;;;5051940;28;20075;-79
2022/03/01 01:46:23;;;;;;;100.95;49.10;;;8.20;99.90;;;;;;5053367;28;20025;-79
2022/03/01 01:48:49;;;;;;;116.50;55.97;;;8.20;99.90;;;;;;5053351;28;20032;-79
2022/03/01 01:51:15;;;;;;;106.50;58.03;;;8.20;99.90;;;;;;5056234;28;20078;-78
2022/03/01 01:53:41;;;;;;;125.07;62.50;;;8.40;99.90;;;;;;5053515;28;20029;-78
2022/03/01 01:56:07;;;;;;;103.03;53.97;;;8.10;99.90;;;;;;5035670;28;20032;-78
2022/03/01 01:58:33;;;;;;;129.52;66.25;;;8.20;99.90;;;;;;5070874;28;20095;-79
2022/03/01 02:01:00;;;;;;;131.02;64.63;;;8.10;99.90;;;;;;5043627;28;20032;-77
2022/03/01 02:03:26;;;;;;;124.78;64.57;;;7.80;99.90;;;;;;5045630;28;20035;-78
2022/03/01 02:05:52;;;;;;;128.90;64.15;;;7.90;99.90;;;;;;5060739;28;20033;-78
2022/03/01 02:08:18;;;;;;;109.78;60.25;;;7.90;99.90;;;;;;5038804;28;20029;-77
2022/03/01 02:10:44;;;;;;;122.60;59.40;;;8.20;99.90;;;;;;5055885;28;20487;-76
2022/03/01 02:13:10;;;;;;;125.07;66.00;;;8.10;99.90;;;;;;5066840;28;20051;-76
2022/03/01 02:15:37;;;;;;;126.82;67.15;;;7.70;99.90;;;;;;5059933;28;20065;-78
2022/03/01 02:18:04;;;;;;;122.90;63.92;;;7.80;99.90;;;;;;5034260;28;20021;-78
2022/03/01 02:20:30;;;;;;;118.00;64.68;;;7.80;99.90;;;;;;5051791;28;20021;-79
2022/03/01 02:22:56;;;;;;;112.53;58.78;;;8.00;99.90;;;;;;5048834;28;20021;-77
2022/03/01 02:25:23;;;;;;;112.93;56.53;;;8.00;99.90;;;;;;5041860;28;20128;-77
2022/03/01 02:27:50;;;;;;;113.60;59.67;;;8.10;99.90;;;;;;5055375;28;20037;-78
2022/03/01 02:30:16;;;;;;;109.10;57.83;;;8.10;99.90;;;;;;5046696;28;20476;-78
2022/03/01 02:32:42;;;;;;;104.13;57.65;;;8.10;99.90;;;;;;5049069;28;20367;-76
2022/03/01 02:35:11;;;;;;;99.00;51.17;;;8.20;99.90;;;;;;5050488;28;20021;-76
2022/03/01 02:37:37;;;;;;;85.07;48.50;;;8.30;99.90;;;;;;5051908;28;20064;-77
2022/03/01 02:40:05;;;;;;;92.22;50.00;;;8.30;99.90;;;;;;5032225;28;20066;-79
2022/03/01 02:42:31;;;;;;;88.20;45.75;;;8.40;99.90;;;;;;5036392;28;20020;-75
2022/03/01 02:44:58;;;;;;;92.88;48.55;;;8.50;99.90;;;;;;5038661;28;20033;-76
2022/03/01 02:47:27;;;;;;;77.78;42.15;;;8.40;99.90;;;;;;5050633;28;20037;-76
2022/03/01 02:49:54;;;;;;;79.20;44.05;;;8.50;99.90;;;;;;5050251;28;20033;-75
2022/03/01 02:52:20;;;;;;;89.32;46.60;;;8.50;99.90;;;;;;5048316;28;20029;-78
2022/03/01 02:54:46;;;;;;;90.80;49.25;;;8.50;99.90;;;;;;5048215;28;20040;-76
2022/03/01 02:57:12;;;;;;;92.03;51.70;;;8.30;99.90;;;;;;5017551;28;20032;-76
2022/03/01 02:59:38;;;;;;;89.45;47.20;;;8.40;99.90;;;;;;5044065;28;21399;-79
2022/03/01 03:02:04;;;;;;;77.80;43.53;;;8.30;99.90;;;;;;5028440;28;20061;-77
2022/03/01 03:04:31;;;;;;;72.38;42.08;;;8.10;99.90;;;;;;5028733;28;20033;-75
2022/03/01 03:06:57;;;;;;;81.00;44.45;;;8.10;99.90;;;;;;5029817;28;20037;-77
2022/03/01 03:09:23;;;;;;;72.13;41.88;;;8.20;99.90;;;;;;5010822;28;20098;-79
2022/03/01 03:11:50;;;;;;;72.93;38.15;;;8.40;99.90;;;;;;5034505;28;20076;-80
2022/03/01 03:14:16;;;;;;;65.68;36.38;;;8.60;99.90;;;;;;5036273;28;20041;-80
2022/03/01 03:16:42;;;;;;;71.35;37.88;;;8.70;99.90;;;;;;5022146;28;20053;-77
2022/03/01 03:19:10;;;;;;;65.90;35.83;;;8.90;99.90;;;;;;5031213;28;20022;-79
2022/03/01 03:21:37;;;;;;;63.60;33.72;;;9.10;99.90;;;;;;5033321;28;20408;-82
2022/03/01 03:24:03;;;;;;;70.88;36.38;;;9.30;99.90;;;;;;5013476;28;20041;-79
2022/03/01 03:26:29;;;;;;;62.00;35.17;;;9.40;99.90;;;;;;5033275;28;20018;-80
2022/03/01 03:28:56;;;;;;;69.80;35.58;;;9.50;99.90;;;;;;5010552;28;20033;-82
2022/03/01 03:31:22;;;;;;;72.28;35.95;;;9.40;99.90;;;;;;5034957;28;20080;-82
2022/03/01 03:33:49;;;;;;;75.13;38.92;;;9.80;99.90;;;;;;5036155;28;20030;-82
2022/03/01 03:36:15;;;;;;;75.90;39.90;;;9.90;99.90;;;;;;5018230;28;20025;-81
2022/03/01 03:38:41;;;;;;;85.70;41.10;;;9.90;99.90;;;;;;5031511;28;20041;-81
2022/03/01 03:41:07;;;;;;;77.97;38.13;;;10.10;99.90;;;;;;5050196;28;20027;-82
2022/03/01 03:43:33;;;;;;;68.70;34.70;;;10.30;99.90;;;;;;5071533;28;20103;-82
2022/03/01 03:45:59;;;;;;;70.65;36.85;;;10.00;99.90;;;;;;5058154;28;20041;-82
2022/03/01 03:48:25;;;;;;;61.13;33.72;;;10.00;99.90;;;;;;5056984;28;20036;-80
2022/03/01 03:50:51;;;;;;;56.47;30.55;;;9.90;99.90;;;;;;5075488;28;20089;-81
2022/03/01 03:53:17;;;;;;;62.42;31.80;;;9.90;99.90;;;;;;5076874;28;20067;-79
2022/03/01 03:55:43;;;;;;;60.40;33.03;;;9.80;99.90;;;;;;5092569;28;20032;-78
2022/03/01 03:58:11;;;;;;;65.85;33.40;;;10.00;99.90;;;;;;5066036;28;20453;-79
2022/03/01 04:00:38;;;;;;;68.63;35.45;;;10.00;99.90;;;;;;5048772;28;20028;-79
2022/03/01 04:03:07;;;;;;;64.10;34.65;;;9.70;99.90;;;;;;5053367;28;20025;-79
2022/03/01 04:05:34;;;;;;;59.67;34.60;;;9.60;99.90;;;;;;5050483;28;20075;-79
2022/03/01 04:08:01;;;;;;;64.55;32.97;;;9.60;99.90;;;;;;5029418;28;20045;-79
2022/03/01 04:10:27;;;;;;;61.50;32.58;;;9.70;99.90;;;;;;5030834;28;20059;-79
2022/03/01 04:12:53;;;;;;;56.35;28.52;;;9.90;99.90;;;;;;5045265;28;20523;-80
2022/03/01 04:15:19;;;;;;;58.95;28.40;;;10.00;99.90;;;;;;5028727;28;20124;-80
2022/03/01 04:17:45;;;;;;;64.05;31.05;;;10.00;99.90;;;;;;5048475;28;20028;-79
2022/03/01 04:20:11;;;;;;;57.30;30.10;;;10.10;99.90;;;;;;5046452;28;20100;-78
2022/03/01 04:22:38;;;;;;;59.15;30.30;;;10.10;99.90;;;;;;5049972;28;20033;-79
2022/03/01 04:25:06;;;;;;;56.40;30.10;;;10.00;99.90;;;;;;5046207;28;20109;-78
2022/03/01 04:27:32;;;;;;;56.25;29.75;;;10.20;99.90;;;;;;5049747;28;20029;-78
2022/03/01 04:29:58;;;;;;;56.92;28.38;;;10.40;99.90;;;;;;5041462;28;20025;-78
2022/03/01 04:32:24;;;;;;;58.75;31.25;;;10.40;99.90;;;;;;5048126;28;20032;-80
2022/03/01 04:34:50;;;;;;;66.93;35.33;;;10.60;99.90;;;;;;5053626;28;20021;-79
2022/03/01 04:37:16;;;;;;;102.22;54.38;;;10.60;99.90;;;;;;5048390;28;20100;-80
2022/03/01 04:39:43;;;;;;;120.85;62.33;;;10.50;99.90;;;;;;5050140;28;20108;-80
2022/03/01 04:42:09;;;;;;;160.40;78.72;;;10.60;99.90;;;;;;5048588;28;20039;-79
2022/03/01 04:44:35;;;;;;;162.05;91.25;;;10.70;99.90;;;;;;5050245;28;20046;-80
2022/03/01 04:47:02;;;;;;;190.98;100.65;;;10.90;99.90;;;;;;5056097;28;20084;-81
2022/03/01 04:49:29;;;;;;;202.27;112.30;;;10.80;99.90;;;;;;5055715;28;20021;-78
2022/03/01 04:51:55;;;;;;;214.05;113.90;;;10.90;99.90;;;;;;5034458;28;20069;-81
2022/03/01 04:54:22;;;;;;;203.88;112.47;;;10.90;99.90;;;;;;5039623;28;20065;-80
2022/03/01 04:56:48;;;;;;;194.77;115.65;;;11.00;99.90;;;;;;5066083;28;20032;-78
2022/03/01 04:59:14;;;;;;;190.23;109.72;;;11.10;99.90;;;;;;5075109;28;20099;-80
2022/03/01 05:01:40;;;;;;;171.30;99.07;;;11.10;99.90;;;;;;5048343;28;20036;-80
2022/03/01 05:04:06;;;;;;;166.77;95.43;;;11.10;99.90;;;;;;5068983;28;20084;-84
2022/03/01 05:06:32;;;;;;;149.55;84.97;;;11.00;99.90;;;;;;5064013;28;20490;-82
2022/03/01 05:08:59;;;;;;;138.57;83.28;;;11.00;99.90;;;;;;5045119;28;20033;-80
2022/03/01 05:11:25;;;;;;;139.18;77.75;;;10.90;99.90;;;;;;5046705;28;20056;-79
2022/03/01 05:13:51;;;;;;;117.72;70.05;;;10.60;99.90;;;;;;5045704;28;20026;-80
2022/03/01 05:16:17;;;;;;;115.20;64.20;;;10.90;99.90;;;;;;5072604;28;20047;-81
2022/03/01 05:18:43;;;;;;;103.57;62.03;;;11.20;99.90;;;;;;5074478;28;20088;-78
2022/03/01 05:21:09;;;;;;;110.28;64.40;;;11.50;99.90;;;;;;5070412;28;20016;-81
2022/03/01 05:23:35;;;;;;;106.28;66.35;;;11.70;99.90;;;;;;5068399;28;20108;-79
2022/03/01 05:26:01;;;;;;;104.05;63.45;;;11.10;99.90;;;;;;5051408;28;20051;-79
2022/03/01 05:28:27;;;;;;;132.23;78.60;;;10.90;99.90;;;;;;5033767;28;20075;-76
2022/03/01 05:30:53;;;;;;;146.45;87.15;;;10.40;99.90;;;;;;5027522;28;20124;-78
2022/03/01 05:33:19;;;;;;;146.65;85.55;;;9.90;99.90;;;;;;5030630;28;20111;-78
2022/03/01 05:35:45;;;;;;;137.00;84.00;;;9.90;99.90;;;;;;5030949;28;20060;-77
2022/03/01 05:38:11;;;;;;;140.68;84.03;;;9.80;99.90;;;;;;5044252;28;20614;-83
2022/03/01 05:40:38;;;;;;;135.32;81.72;;;10.10;99.90;;;;;;5045950;28;20040;-81
2022/03/01 05:43:11;;;;;;;130.52;79.30;;;10.20;99.90;;;;;;5052644;28;20067;-78
2022/03/01 05:45:37;;;;;;;132.07;82.07;;;10.30;99.90;;;;;;5051276;28;20033;-81
2022/03/01 05:48:04;;;;;;;137.95;79.85;;;10.00;99.90;;;;;;5038786;28;20024;-81
2022/03/01 05:50:30;;;;;;;130.55;79.20;;;10.00;99.90;;;;;;5047067;28;20025;-81
2022/03/01 05:52:56;;;;;;;130.32;80.07;;;10.30;99.90;;;;;;5048504;28;20936;-79
2022/03/01 05:55:22;;;;;;;120.53;76.43;;;10.10;99.90;;;;;;5045067;28;20024;-78
2022/03/01 05:57:48;;;;;;;115.38;68.68;;;10.40;99.90;;;;;;5043273;28;20029;-78
2022/03/01 06:00:17;;;;;;;109.90;65.95;;;10.50;99.90;;;;;;5030529;28;20024;-78
2022/03/01 06:02:45;;;;;;;119.38;71.07;;;10.50;99.90;;;;;;5027407;28;20120;-78
2022/03/01 06:05:12;;;;;;;108.03;61.25;;;10.70;99.90;;;;;;5044641;28;20027;-78
2022/03/01 06:07:39;;;;;;;109.15;61.33;;;10.70;99.90;;;;;;5047260;28;20471;-79
2022/03/01 06:10:06;;;;;;;102.65;60.25;;;10.80;99.90;;;;;;5026236;28;20035;-78
2022/03/01 06:12:32;;;;;;;113.70;63.00;;;10.90;99.90;;;;;;5027681;28;20392;-78
2022/03/01 06:14:58;;;;;;;129.60;69.10;;;11.00;99.90;;;;;;5037470;28;20029;-78
2022/03/01 06:17:24;;;;;;;124.63;69.10;;;11.10;99.90;;;;;;5047480;28;20400;-77
2022/03/01 06:19:50;;;;;;;117.63;63.72;;;11.40;99.90;;;;;;5030376;28;20160;-78
2022/03/01 06:22:20;;;;;;;104.30;56.83;;;11.50;99.90;;;;;;5033296;28;20030;-80
2022/03/01 06:24:47;;;;;;;126.07;62.25;;;11.40;99.90;;;;;;5043435;28;20033;-83
2022/03/01 06:27:13;;;;;;;96.70;55.28;;;11.20;99.90;;;;;;5042938;28;20045;-81
2022/03/01 06:29:40;;;;;;;99.70;51.33;;;11.20;99.90;;;;;;5047232;28;20435;-81
2022/03/01 06:32:06;;;;;;;104.20;58.50;;;11.50;99.90;;;;;;5050357;28;20835;-80
2022/03/01 06:34:33;;;;;;;113.78;68.97;;;11.70;99.90;;;;;;5044277;28;20048;-81
2022/03/01 06:36:59;;;;;;;118.78;69.80;;;12.00;99.90;;;;;;5044605;28;20109;-84
2022/03/01 06:39:26;;;;;;;104.65;64.10;;;12.30;99.90;;;;;;5048286;28;20039;-80
2022/03/01 06:41:52;;;;;;;99.25;60.72;;;12.40;99.90;;;;;;5049889;28;20052;-81
2022/03/01 06:44:18;;;;;;;98.72;61.65;;;12.30;99.90;;;;;;5047309;28;20028;-81
2022/03/01 06:46:45;;;;;;;92.43;55.00;;;12.00;99.90;;;;;;5056202;28;20033;-82
2022/03/01 06:49:11;;;;;;;89.45;54.05;;;11.90;99.90;;;;;;5026195;28;20024;-83
2022/03/01 06:51:37;;;;;;;98.97;61.05;;;12.10;99.90;;;;;;5054160;28;20403;-82
2022/03/01 06:54:03;;;;;;;99.80;59.08;;;12.50;99.90;;;;;;5048754;28;20026;-81
2022/03/01 06:56:29;;;;;;;93.45;57.42;;;12.80;99.90;;;;;;5049190;28;20018;-82
2022/03/01 06:58:55;;;;;;;94.65;58.63;;;12.60;99.90;;;;;;5049532;28;20363;-80
2022/03/01 07:01:22;;;;;;;92.43;55.58;;;12.80;99.90;;;;;;5057881;28;20038;-81
2022/03/01 07:03:48;;;;;;;86.22;53.72;;;12.70;99.90;;;;;;5052115;28;20033;-84
2022/03/01 07:06:14;;;;;;;86.85;52.65;;;12.90;99.90;;;;;;5051052;28;20067;-81
2022/03/01 07:08:40;;;;;;;86.13;55.97;;;12.90;99.90;;;;;;5048203;28;20025;-78
2022/03/01 07:11:06;;;;;;;80.88;53.03;;;13.00;99.90;;;;;;5050574;28;20033;-78
2022/03/01 07:13:32;;;;;;;90.70;52.28;;;12.30;99.90;;;;;;5049143;28;20396;-83
2022/03/01 07:15:58;;;;;;;86.60;54.00;;;12.10;99.90;;;;;;5036307;28;20029;-81
2022/03/01 07:18:24;;;;;;;100.35;55.83;;;12.30;99.90;;;;;;5031543;28;20440;-82
2022/03/01 07:20:50;;;;;;;87.45;52.75;;;12.10;99.90;;;;;;5048058;28;20075;-80
2022/03/01 07:23:16;;;;;;;92.82;57.63;;;11.80;99.90;;;;;;5050490;28;20032;-83
2022/03/01 07:25:42;;;;;;;92.35;53.45;;;12.00;99.90;;;;;;5051248;28;20133;-81
2022/03/01 07:28:08;;;;;;;89.32;51.63;;;12.20;99.90;;;;;;5035558;28;20360;-80
2022/03/01 07:30:34;;;;;;;91.00;57.08;;;12.10;99.90;;;;;;5051453;28;20029;-80
2022/03/01 07:33:01;;;;;;;97.15;57.55;;;11.70;99.90;;;;;;5059622;28;20083;-81
2022/03/01 07:35:28;;;;;;;91.57;53.38;;;11.10;99.90;;;;;;5063246;28;20475;-82
2022/03/01 07:37:55;;;;;;;97.70;55.05;;;11.20;99.90;;;;;;5045210;28;20049;-77
2022/03/01 07:40:23;;;;;;;82.63;53.38;;;11.60;99.90;;;;;;5010851;28;20030;-81
2022/03/01 07:42:50;;;;;;;87.53;54.55;;;11.90;99.90;;;;;;5011254;28;20041;-80
2022/03/01 07:45:17;;;;;;;86.30;52.85;;;11.60;99.90;;;;;;5012855;28;20033;-81
2022/03/01 07:47:43;;;;;;;86.03;51.17;;;11.30;99.90;;;;;;5029384;28;20043;-76
2022/03/01 07:50:10;;;;;;;85.25;52.13;;;11.20;99.90;;;;;;5024891;28;20392;-85
2022/03/01 07:52:39;;;;;;;85.20;51.63;;;11.50;99.90;;;;;;5032732;28;20396;-79
2022/03/01 07:55:06;;;;;;;79.05;48.63;;;11.70;99.90;;;;;;5026646;28;20104;-79
2022/03/01 07:57:32;;;;;;;80.97;49.67;;;11.70;99.90;;;;;;5031684;28;20045;-79
2022/03/01 07:59:58;;;;;;;78.30;47.58;;;11.30;99.90;;;;;;5018347;28;20451;-82
2022/03/01 08:02:24;;;;;;;88.10;52.75;;;11.40;99.90;;;;;;5015168;28;20103;-79
2022/03/01 08:04:50;;;;;;;81.82;49.50;;;11.60;99.90;;;;;;5035905;28;20029;-82
2022/03/01 08:07:16;;;;;;;80.72;50.33;;;11.80;99.90;;;;;;5014184;28;20032;-83
2022/03/01 08:09:44;;;;;;;83.70;47.28;;;11.90;99.90;;;;;;5027909;28;20025;-80
2022/03/01 08:12:11;;;;;;;76.72;47.83;;;11.40;99.90;;;;;;5032833;28;20033;-81
2022/03/01 08:14:38;;;;;;;83.30;50.15;;;11.80;99.90;;;;;;5011172;28;20117;-81
2022/03/01 08:17:04;;;;;;;88.35;51.42;;;11.70;99.90;;;;;;5026515;28;20021;-80
2022/03/01 08:19:30;;;;;;;93.57;50.55;;;11.90;99.90;;;;;;5027465;28;20022;-80
2022/03/01 08:21:56;;;;;;;76.25;48.15;;;12.20;99.90;;;;;;5014907;28;20546;-80
2022/03/01 08:24:22;;;;;;;81.60;51.80;;;12.40;99.90;;;;;;5032900;28;20041;-80
2022/03/01 08:26:49;;;;;;;49.35;31.73;;;11.80;99.90;;;;;;5031200;28;20092;-81
2022/03/01 08:29:18;;;;;;;39.40;27.02;;;11.30;99.90;;;;;;5025563;28;20029;-82
2022/03/01 08:31:45;;;;;;;41.63;26.55;;;11.40;99.90;;;;;;5031382;28;20036;-82
2022/03/01 08:34:11;;;;;;;36.42;22.80;;;11.30;99.90;;;;;;5028708;28;20030;-80
2022/03/01 08:36:37;;;;;;;36.42;23.70;;;11.30;99.90;;;;;;5031909;28;20037;-80
2022/03/01 08:39:04;;;;;;;28.52;18.63;;;11.30;99.90;;;;;;5032849;28;20048;-81
2022/03/01 08:41:30;;;;;;;33.50;22.35;;;10.80;99.90;;;;;;5054942;28;20037;-80
2022/03/01 08:43:56;;;;;;;35.25;21.02;;;10.90;99.90;;;;;;5038348;28;20075;-81
2022/03/01 08:46:23;;;;;;;34.47;20.92;;;11.10;99.90;;;;;;5045912;28;20033;-80
2022/03/01 08:48:53;;;;;;;34.70;22.17;;;11.10;99.90;;;;;;5041118;28;20539;-81
2022/03/01 08:51:21;;;;;;;34.67;22.35;;;11.00;99.90;;;;;;5064938;28;20024;-81
2022/03/01 08:53:50;;;;;;;31.98;19.88;;;11.10;99.90;;;;;;5039696;28;20036;-79
2022/03/01 08:56:17;;;;;;;33.13;20.40;;;11.20;99.90;;;;;;5045226;28;20029;-81
2022/03/01 08:58:44;;;;;;;31.40;21.92;;;11.40;99.90;;;;;;5033686;28;20036;-82
2022/03/01 09:01:11;;;;;;;50.95;30.13;;;11.70;99.90;;;;;;5029476;28;20051;-83
2022/03/01 09:03:37;;;;;;;32.72;21.52;;;12.10;99.90;;;;;;5043050;28;20029;-82
2022/03/01 09:06:05;;;;;;;37.03;20.98;;;12.30;99.90;;;;;;5044309;28;20040;-81
2022/03/01 09:08:39;;;;;;;35.83;20.52;;;12.40;99.90;;;;;;5033266;28;20037;-82
2022/03/01 09:11:13;;;;;;;51.05;30.90;;;12.40;99.90;;;;;;5044509;28;20490;-81
2022/03/01 09:13:40;;;;;;;36.75;23.00;;;12.70;99.90;;;;;;5046906;28;20028;-80
2022/03/01 09:16:07;;;;;;;32.92;22.52;;;13.20;99.90;;;;;;5028814;28;20029;-80
2022/03/01 09:18:34;;;;;;;31.50;21.08;;;12.40;99.90;;;;;;5046319;28;20017;-80
2022/03/01 09:21:01;;;;;;;39.28;23.65;;;12.40;99.90;;;;;;5048472;28;20017;-80
2022/03/01 09:23:27;;;;;;;38.80;24.42;;;12.60;99.90;;;;;;5053519;28;20490;-79
2022/03/01 09:25:53;;;;;;;39.63;26.00;;;12.20;99.90;;;;;;5047356;28;20028;-79
2022/03/01 09:28:22;;;;;;;37.97;24.90;;;12.10;99.90;;;;;;5054726;28;20029;-80
2022/03/01 09:30:49;;;;;;;39.67;24.40;;;11.90;99.90;;;;;;5034742;28;20033;-82
2022/03/01 09:33:18;;;;;;;44.35;24.52;;;11.60;99.90;;;;;;5043626;28;20033;-82
2022/03/01 09:35:46;;;;;;;35.67;23.35;;;11.50;99.90;;;;;;5049080;28;20051;-83
2022/03/01 09:38:12;;;;;;;42.72;23.95;;;11.30;99.90;;;;;;5050569;28;20037;-79
2022/03/01 09:40:38;;;;;;;33.47;22.90;;;11.30;99.90;;;;;;5046853;28;20426;-79
2022/03/01 09:43:05;;;;;;;40.08;22.92;;;11.30;99.90;;;;;;5048613;28;20021;-79
2022/03/01 09:45:31;;;;;;;38.58;24.08;;;11.30;99.90;;;;;;5046528;28;20089;-78
2022/03/01 09:47:57;;;;;;;33.72;23.38;;;11.40;99.90;;;;;;5042107;28;20040;-84
2022/03/01 09:50:27;;;;;;;47.65;27.88;;;11.20;99.90;;;;;;5032149;28;20036;-77
2022/03/01 09:52:55;;;;;;;48.78;25.52;;;11.30;99.90;;;;;;5048211;28;20047;-77
2022/03/01 09:55:22;;;;;;;38.88;23.85;;;11.40;99.90;;;;;;5044560;28;20576;-78
2022/03/01 09:57:48;;;;;;;45.67;26.98;;;11.30;99.90;;;;;;5032417;28;20110;-80
2022/03/01 10:00:15;;;;;;;36.15;24.67;;;11.30;99.90;;;;;;5035476;28;20043;-81
2022/03/01 10:02:43;;;;;;;36.40;23.75;;;11.20;99.90;;;;;;5053468;28;20017;-82
2022/03/01 10:05:13;;;;;;;37.30;24.15;;;11.20;99.90;;;;;;5057990;28;20078;-81
2022/03/01 10:07:48;;;;;;;41.97;26.33;;;11.20;99.90;;;;;;5036792;28;20033;-83
2022/03/01 10:10:16;;;;;;;42.22;25.85;;;11.10;99.90;;;;;;5045219;28;20036;-80
2022/03/01 10:12:50;;;;;;;41.30;28.35;;;11.10;99.90;;;;;;5049488;28;20068;-82
2022/03/01 10:15:16;;;;;;;40.88;27.45;;;11.20;99.90;;;;;;5045104;28;20025;-81
2022/03/01 10:17:45;;;;;;;40.58;27.83;;;11.30;99.90;;;;;;5046173;28;20021;-83
2022/03/01 10:20:18;;;;;;;41.75;24.42;;;11.20;99.90;;;;;;5049501;28;20028;-82
2022/03/01 10:22:49;;;;;;;42.38;25.13;;;11.00;99.90;;;;;;5054773;28;20029;-80
2022/03/01 10:25:18;;;;;;;39.20;24.52;;;11.20;99.90;;;;;;5050413;28;20025;-82
2022/03/01 10:27:46;;;;;;;35.45;24.40;;;11.40;99.90;;;;;;5054085;28;20030;-82
2022/03/01 10:30:21;;;;;;;38.15;24.48;;;11.40;99.90;;;;;;5033215;28;20025;-84
2022/03/01 10:32:47;;;;;;;45.13;24.98;;;11.40;99.90;;;;;;5047319;28;20475;-80
2022/03/01 10:35:13;;;;;;;43.80;26.48;;;11.40;99.90;;;;;;5055557;28;20051;-81
2022/03/01 10:37:40;;;;;;;41.13;26.20;;;11.20;99.90;;;;;;5059235;28;20065;-80
2022/03/01 10:40:12;;;;;;;38.75;23.83;;;11.10;99.90;;;;;;5071727;28;20104;-79
2022/03/01 10:42:39;;;;;;;38.65;24.17;;;11.40;99.90;;;;;;5059733;28;20455;-79
2022/03/01 10:45:06;;;;;;;44.50;29.05;;;11.30;99.90;;;;;;5046826;28;20049;-80
2022/03/01 10:47:33;;;;;;;62.33;28.95;;;11.00;99.90;;;;;;5036166;28;20079;-80
2022/03/01 10:50:10;;;;;;;52.22;28.85;;;11.10;99.90;;;;;;5049141;28;20029;-79
2022/03/01 10:52:41;;;;;;;40.63;27.02;;;11.00;99.90;;;;;;5045482;28;20055;-79
2022/03/01 10:55:25;;;;;;;42.35;26.73;;;10.90;99.90;;;;;;5042916;28;20121;-76
2022/03/01 10:58:10;;;;;;;39.65;27.00;;;11.20;99.90;;;;;;5033056;28;20677;-79
2022/03/01 11:00:38;;;;;;;46.45;31.10;;;11.30;99.90;;;;;;5044221;28;20111;-78
2022/03/01 11:03:08;;;;;;;42.78;28.08;;;11.10;99.90;;;;;;5048766;28;20016;-77
2022/03/01 11:05:35;;;;;;;41.08;26.70;;;11.00;99.90;;;;;;5053024;28;20051;-78
2022/03/01 11:08:09;;;;;;;45.88;29.33;;;11.20;99.90;;;;;;5036351;28;20032;-77
2022/03/01 11:10:38;;;;;;;50.40;31.77;;;11.30;99.90;;;;;;5050716;28;20060;-80
2022/03/01 11:13:06;;;;;;;48.03;29.85;;;11.30;99.90;;;;;;5048694;28;20585;-81
2022/03/01 11:15:55;;;;;;;45.13;27.75;;;10.90;99.90;;;;;;5055894;28;20040;-77
2022/03/01 11:18:40;;;;;;;44.90;28.50;;;10.90;99.90;;;;;;5053066;28;20040;-80
2022/03/01 11:21:08;;;;;;;43.20;27.70;;;10.80;99.90;;;;;;5047101;28;20096;-81
2022/03/01 11:23:35;;;;;;;45.03;26.90;;;10.60;99.90;;;;;;5030806;28;20024;-80
2022/03/01 11:26:09;;;;;;;43.70;28.15;;;10.60;99.90;;;;;;5032705;28;20402;-81
2022/03/01 11:28:40;;;;;;;42.22;27.30;;;10.60;99.90;;;;;;5057270;28;20033;-81
2022/03/01 11:31:28;;;;;;;42.38;25.75;;;10.80;99.90;;;;;;5040692;28;20036;-81
2022/03/01 11:34:16;;;;;;;43.33;27.05;;;10.90;99.90;;;;;;5043714;28;20028;-82
2022/03/01 11:36:55;;;;;;;41.08;25.38;;;11.00;99.90;;;;;;5054484;28;20071;-78
2022/03/01 11:39:30;;;;;;;40.10;26.08;;;10.80;99.90;;;;;;5021563;28;20049;-80
2022/03/01 11:42:08;;;;;;;41.65;25.50;;;10.90;99.90;;;;;;5034586;28;20052;-80
2022/03/01 11:44:41;;;;;;;47.17;25.90;;;10.90;99.90;;;;;;5032335;28;20155;-79
2022/03/01 11:47:13;;;;;;;43.78;25.00;;;10.70;99.90;;;;;;5026797;28;20473;-79
2022/03/01 11:49:41;;;;;;;39.97;24.30;;;10.70;99.90;;;;;;5010430;28;20037;-80
2022/03/01 11:52:21;;;;;;;39.75;25.95;;;10.70;99.90;;;;;;5030995;28;20047;-78
2022/03/01 11:54:50;;;;;;;36.20;23.70;;;10.70;99.90;;;;;;5027569;28;20052;-82
2022/03/01 11:57:23;;;;;;;42.08;22.63;;;10.60;99.90;;;;;;5033937;28;20017;-82
2022/03/01 11:59:50;;;;;;;39.53;23.00;;;10.50;99.90;;;;;;5034271;28;20032;-81
2022/03/01 12:02:18;;;;;;;35.25;21.33;;;10.60;99.90;;;;;;5024172;28;20082;-80
2022/03/01 12:04:49;;;;;;;42.00;23.52;;;10.80;99.90;;;;;;5039780;28;20029;-78
2022/03/01 12:07:19;;;;;;;36.10;21.88;;;10.60;99.90;;;;;;5010416;28;20026;-78
2022/03/01 12:10:08;;;;;;;30.45;21.73;;;10.50;99.90;;;;;;5036940;28;20444;-79
2022/03/01 12:12:38;;;;;;;36.35;22.38;;;10.50;99.90;;;;;;5027479;28;20055;-78
2022/03/01 12:15:06;;;;;;;34.17;20.45;;;10.70;99.90;;;;;;5029947;28;20088;-79
2022/03/01 12:17:47;;;;;;;35.95;21.00;;;10.80;99.90;;;;;;5028726;28;20025;-78
2022/03/01 12:20:25;;;;;;;39.88;21.48;;;10.80;99.90;;;;;;5037988;28;20075;-79
2022/03/01 12:22:52;;;;;;;32.88;19.77;;;10.70;99.90;;;;;;5028208;28;20017;-79
2022/03/01 12:25:18;;;;;;;33.22;19.80;;;10.80;99.90;;;;;;5031230;28;20030;-77
2022/03/01 12:27:45;;;;;;;32.72;20.58;;;10.90;99.90;;;;;;5039877;28;20029;-78
2022/03/01 12:30:17;;;;;;;35.38;20.80;;;10.80;99.90;;;;;;5033346;28;20037;-78
2022/03/01 12:32:52;;;;;;;41.45;22.83;;;10.70;99.90;;;;;;5037316;28;20029;-77